Time;durP1;ratioP1;P1;durP2;ratioP2;P2;SDS_P1;SDS_P2;PMS_P1;PMS_P2;Temp;Humidity;BMP_temperature;BMP_pressure;BME280_temperature;BME280_humidity;BME280_pressure;Samples;Min_cycle;Max_cycle;Signal;HPM_P1;HPM_P2
2021/03/08 00:01:37;;;;;;;6.42;4.85;;;;;;;-0.49;59.13;98209.03;1811763;78;20889;-74
2021/03/08 00:04:07;;;;;;;7.17;6.20;;;;;;;-0.41;58.78;98196.48;1822201;78;20925;-74
2021/03/08 00:06:37;;;;;;;9.30;7.00;;;;;;;-0.30;58.40;98198.81;1818259;78;21067;-74
2021/03/08 00:09:05;;;;;;;7.05;6.05;;;;;;;-0.22;58.33;98195.92;1755580;81;21667;-74
2021/03/08 00:11:35;;;;;;;8.43;6.47;;;;;;;-0.13;57.85;98193.02;1742512;80;21604;-75
2021/03/08 00:14:05;;;;;;;11.43;7.58;;;;;;;-0.06;57.55;98187.98;1760829;80;20985;-75
2021/03/08 00:16:32;;;;;;;6.95;5.90;;;;;;;0.06;57.35;98184.56;1822537;78;20964;-75
2021/03/08 00:19:01;;;;;;;9.33;6.92;;;;;;;0.14;57.00;98179.91;1752977;81;21063;-75
2021/03/08 00:21:28;;;;;;;6.80;6.12;;;;;;;0.21;56.98;98175.31;1814167;78;21135;-75
2021/03/08 00:23:56;;;;;;;10.88;7.17;;;;;;;0.29;56.72;98176.79;1815998;78;21512;-75
2021/03/08 00:26:27;;;;;;;8.08;6.58;;;;;;;0.35;56.41;98175.28;1817979;78;21068;-75
2021/03/08 00:28:58;;;;;;;7.22;6.42;;;;;;;0.43;56.24;98168.89;1818308;78;20926;-75
2021/03/08 00:31:26;;;;;;;7.25;6.55;;;;;;;0.49;56.51;98169.99;1818022;78;20929;-75
2021/03/08 00:33:57;;;;;;;7.05;6.35;;;;;;;0.56;56.19;98171.53;1805080;78;21465;-75
2021/03/08 00:36:25;;;;;;;8.80;7.55;;;;;;;0.62;56.19;98167.38;1812433;78;21147;-75
2021/03/08 00:38:52;;;;;;;8.88;7.12;;;;;;;0.67;56.31;98160.61;1828296;78;21553;-74
2021/03/08 00:41:24;;;;;;;9.73;6.92;;;;;;;0.72;55.85;98159.52;1818280;78;20929;-74
2021/03/08 00:43:51;;;;;;;8.78;7.22;;;;;;;0.78;56.05;98152.33;1828282;78;21162;-75
2021/03/08 00:46:20;;;;;;;7.92;6.37;;;;;;;0.83;55.76;98159.64;1757420;80;22677;-74
2021/03/08 00:48:49;;;;;;;9.93;8.08;;;;;;;0.88;55.96;98153.72;1749164;80;21545;-74
2021/03/08 00:51:18;;;;;;;10.00;8.63;;;;;;;0.89;56.22;98144.89;1748466;81;21100;-74
2021/03/08 00:53:46;;;;;;;9.25;8.30;;;;;;;0.94;55.94;98144.27;1804165;78;21079;-74
2021/03/08 00:56:15;;;;;;;8.15;7.28;;;;;;;0.99;56.31;98143.64;1804168;78;20905;-74
2021/03/08 00:58:43;;;;;;;11.33;8.38;;;;;;;1.03;56.24;98143.95;1814166;78;22290;-74
2021/03/08 01:01:11;;;;;;;10.15;8.65;;;;;;;1.05;56.51;98140.78;1822565;78;21071;-74
2021/03/08 01:03:39;;;;;;;11.38;9.58;;;;;;;1.08;56.73;98135.38;1818241;78;20913;-74
2021/03/08 01:06:08;;;;;;;13.90;8.95;;;;;;;1.10;56.56;98127.86;1827893;78;20916;-74
2021/03/08 01:08:38;;;;;;;10.43;8.45;;;;;;;1.13;56.87;98126.44;1819209;78;20940;-74
2021/03/08 01:11:09;;;;;;;10.05;8.05;;;;;;;1.15;56.61;98128.55;1824588;77;22275;-74
2021/03/08 01:13:41;;;;;;;9.35;8.30;;;;;;;1.16;56.62;98128.97;1816909;78;20948;-74
2021/03/08 01:16:09;;;;;;;8.53;7.62;;;;;;;1.16;56.31;98116.59;1824509;78;20926;-74
2021/03/08 01:18:38;;;;;;;10.15;8.23;;;;;;;1.19;56.23;98111.67;1822242;78;20917;-74
2021/03/08 01:21:06;;;;;;;9.05;8.00;;;;;;;1.20;56.20;98114.70;1816603;78;21072;-74
2021/03/08 01:23:34;;;;;;;10.25;8.63;;;;;;;1.21;56.23;98104.53;1816312;78;21575;-74
2021/03/08 01:26:02;;;;;;;9.93;8.63;;;;;;;1.20;56.35;98103.67;1814068;78;20882;-74
2021/03/08 01:28:31;;;;;;;11.25;10.00;;;;;;;1.20;56.40;98101.47;1808211;78;21039;-72
2021/03/08 01:31:01;;;;;;;9.68;8.45;;;;;;;1.19;56.87;98106.38;1808919;77;22360;-74
2021/03/08 01:33:30;;;;;;;13.98;9.83;;;;;;;1.18;56.72;98100.23;1819045;78;20909;-73
2021/03/08 01:36:00;;;;;;;10.78;9.68;;;;;;;1.20;57.35;98098.82;1821998;78;21370;-73
2021/03/08 01:38:30;;;;;;;11.08;9.18;;;;;;;1.20;57.17;98097.50;1817466;78;21024;-74
2021/03/08 01:40:57;;;;;;;11.97;10.25;;;;;;;1.21;57.38;98093.48;1811588;78;20941;-73
2021/03/08 01:43:28;;;;;;;13.30;9.28;;;;;;;1.23;57.68;98096.06;1781117;80;20890;-74
2021/03/08 01:45:57;;;;;;;11.95;10.72;;;;;;;1.23;57.65;98088.13;1827603;78;20976;-74
2021/03/08 01:48:26;;;;;;;12.03;10.28;;;;;;;1.25;57.98;98087.63;1820143;78;22386;-74
2021/03/08 01:50:55;;;;;;;13.60;12.03;;;;;;;1.25;58.08;98084.52;1811494;78;20972;-74
2021/03/08 01:53:27;;;;;;;13.08;10.78;;;;;;;1.26;58.18;98091.98;1819720;78;20961;-74
2021/03/08 01:55:56;;;;;;;12.78;10.72;;;;;;;1.27;58.35;98084.47;1781536;80;20928;-74
2021/03/08 01:58:24;;;;;;;12.40;11.05;;;;;;;1.26;58.65;98086.25;1817423;78;21132;-74
2021/03/08 02:01:11;;;;;;;16.62;12.43;;;;;;;1.30;58.73;98091.44;1827859;77;21791;-73
2021/03/08 02:03:59;;;;;;;14.07;12.65;;;;;;;1.29;58.82;98085.26;1773046;80;21134;-74
2021/03/08 02:06:28;;;;;;;12.47;11.28;;;;;;;1.28;58.75;98082.23;1819490;78;32551;-74
2021/03/08 02:08:58;;;;;;;12.75;11.50;;;;;;;1.30;58.96;98079.53;1818723;78;23356;-74
2021/03/08 02:11:25;;;;;;;12.93;11.50;;;;;;;1.29;58.78;98088.37;1781752;80;21461;-74
2021/03/08 02:14:38;;;;;;;13.60;11.85;;;;;;;1.26;58.78;98088.02;1776149;80;21641;-74
2021/03/08 02:17:13;;;;;;;15.43;12.75;;;;;;;1.27;59.17;98081.81;1817093;78;21004;-73
2021/03/08 02:20:13;;;;;;;14.63;11.35;;;;;;;1.26;59.03;98097.28;1787073;80;21008;-74
2021/03/08 02:23:21;;;;;;;16.10;12.55;;;;;;;1.27;58.92;98096.37;1813313;78;21016;-73
2021/03/08 02:26:28;;;;;;;14.75;12.60;;;;;;;1.25;59.22;98097.75;1784801;80;21343;-73
2021/03/08 02:29:34;;;;;;;14.28;12.00;;;;;;;1.23;59.21;98097.39;1818800;78;21194;-74
2021/03/08 02:32:09;;;;;;;14.13;11.05;;;;;;;1.20;59.43;98098.82;1820775;78;21023;-74
2021/03/08 02:35:00;;;;;;;14.40;12.88;;;;;;;1.15;59.40;98092.84;1754374;80;20902;-74
2021/03/08 02:37:31;;;;;;;15.00;13.40;;;;;;;1.13;59.39;98092.05;1820250;78;20940;-73
2021/03/08 02:40:07;;;;;;;13.15;11.57;;;;;;;1.11;59.58;98088.60;1725041;80;21618;-74
2021/03/08 02:42:38;;;;;;;14.55;12.15;;;;;;;1.06;59.62;98086.97;1810664;78;22309;-74
2021/03/08 02:45:10;;;;;;;14.03;12.23;;;;;;;1.03;59.53;98094.16;1822685;78;21055;-74
2021/03/08 02:47:43;;;;;;;13.03;11.63;;;;;;;0.98;59.62;98086.39;1781469;80;20909;-74
2021/03/08 02:50:12;;;;;;;12.10;10.90;;;;;;;0.93;59.60;98080.41;1823008;78;21016;-73
2021/03/08 02:52:51;;;;;;;11.83;10.35;;;;;;;0.88;59.54;98083.66;1805068;78;21040;-74
2021/03/08 02:55:19;;;;;;;14.20;12.37;;;;;;;0.83;59.77;98086.92;1802440;78;23327;-74
2021/03/08 02:57:47;;;;;;;13.32;10.95;;;;;;;0.79;59.61;98090.58;1812719;78;21052;-73
2021/03/08 03:00:16;;;;;;;14.95;11.83;;;;;;;0.76;59.74;98088.05;1757576;80;20985;-74
2021/03/08 03:02:47;;;;;;;13.08;11.60;;;;;;;0.72;59.76;98085.50;1815192;77;20985;-74
2021/03/08 03:05:16;;;;;;;15.93;13.75;;;;;;;0.70;59.93;98087.34;1757970;80;21478;-74
2021/03/08 03:07:47;;;;;;;13.75;12.30;;;;;;;0.66;60.15;98097.64;1764433;81;22199;-74
2021/03/08 03:10:16;;;;;;;15.58;12.95;;;;;;;0.66;60.36;98098.96;1757442;81;20989;-74
2021/03/08 03:12:46;;;;;;;14.55;12.20;;;;;;;0.63;60.62;98099.06;1818147;78;21489;-73
2021/03/08 03:15:14;;;;;;;13.13;11.35;;;;;;;0.63;60.51;98102.14;1809070;78;20928;-74
2021/03/08 03:17:46;;;;;;;14.45;12.98;;;;;;;0.59;60.50;98100.08;1758426;80;21084;-74
2021/03/08 03:20:15;;;;;;;16.45;13.32;;;;;;;0.58;60.65;98089.55;1809942;78;21357;-74
2021/03/08 03:22:45;;;;;;;13.98;12.00;;;;;;;0.56;60.84;98092.25;1809455;78;20953;-73
2021/03/08 03:25:20;;;;;;;13.40;12.00;;;;;;;0.52;61.08;98094.58;1822803;78;21126;-74
2021/03/08 03:27:49;;;;;;;20.52;14.15;;;;;;;0.49;61.18;98096.00;1765159;80;21556;-73
2021/03/08 03:30:24;;;;;;;17.87;15.00;;;;;;;0.43;61.47;98093.59;1818472;78;21033;-74
2021/03/08 03:32:54;;;;;;;15.48;13.53;;;;;;;0.41;61.66;98088.79;1751989;80;21438;-74
2021/03/08 03:35:25;;;;;;;15.00;13.45;;;;;;;0.37;61.87;98092.47;1810450;77;21023;-74
2021/03/08 03:37:56;;;;;;;15.98;13.43;;;;;;;0.34;62.04;98090.31;1754005;80;21589;-73
2021/03/08 03:40:26;;;;;;;14.10;12.53;;;;;;;0.34;62.27;98098.70;1824767;78;20908;-74
2021/03/08 03:42:54;;;;;;;20.17;17.00;;;;;;;0.32;62.54;98094.80;1756923;80;21077;-74
2021/03/08 03:45:23;;;;;;;17.77;15.88;;;;;;;0.33;62.81;98096.53;1822582;78;21388;-74
2021/03/08 03:47:53;;;;;;;18.15;15.78;;;;;;;0.32;63.00;98093.47;1789855;80;21167;-74
2021/03/08 03:50:22;;;;;;;20.70;17.17;;;;;;;0.34;63.22;98100.88;1811190;78;20975;-74
2021/03/08 03:52:51;;;;;;;19.62;15.38;;;;;;;0.34;63.51;98100.88;1804906;78;21051;-74
2021/03/08 03:55:19;;;;;;;18.48;16.57;;;;;;;0.38;63.66;98100.78;1816402;78;20912;-73
2021/03/08 03:58:12;;;;;;;22.42;17.23;;;;;;;0.40;63.93;98100.30;1817300;78;21185;-74
2021/03/08 04:01:05;;;;;;;17.02;13.88;;;;;;;0.41;64.06;98101.56;1781404;79;20985;-74
2021/03/08 04:03:58;;;;;;;17.07;15.10;;;;;;;0.44;64.43;98097.94;1754520;79;21567;-74
2021/03/08 04:06:35;;;;;;;19.05;16.20;;;;;;;0.47;64.43;98097.84;1751135;81;20924;-74
2021/03/08 04:09:04;;;;;;;19.05;17.05;;;;;;;0.51;64.71;98103.44;1769603;80;27096;-73
2021/03/08 04:11:35;;;;;;;18.62;16.40;;;;;;;0.55;64.84;98107.69;1744408;80;21373;-74
2021/03/08 04:14:03;;;;;;;20.17;16.35;;;;;;;0.57;65.07;98100.59;1750565;79;21128;-75
2021/03/08 04:16:31;;;;;;;20.05;17.10;;;;;;;0.61;64.99;98107.95;1811600;78;20936;-75
2021/03/08 04:19:01;;;;;;;20.82;16.23;;;;;;;0.64;64.92;98110.49;1821475;78;20902;-75
2021/03/08 04:21:29;;;;;;;15.25;13.75;;;;;;;0.68;64.85;98111.66;1780211;80;21587;-74
2021/03/08 04:23:57;;;;;;;18.52;15.18;;;;;;;0.69;65.16;98108.11;1807454;78;22145;-74
2021/03/08 04:26:25;;;;;;;19.80;14.98;;;;;;;0.73;64.95;98110.19;1813816;78;21456;-74
2021/03/08 04:28:54;;;;;;;19.37;17.15;;;;;;;0.75;65.26;98110.13;1826392;78;20922;-74
2021/03/08 04:31:23;;;;;;;18.30;15.93;;;;;;;0.76;65.06;98110.52;1702889;81;21147;-74
2021/03/08 04:33:54;;;;;;;21.17;15.35;;;;;;;0.77;65.06;98114.89;1815457;78;20933;-73
2021/03/08 04:36:22;;;;;;;17.55;15.25;;;;;;;0.78;65.15;98111.34;1814023;78;21173;-74
2021/03/08 04:38:50;;;;;;;17.42;15.63;;;;;;;0.77;65.26;98109.14;1817661;78;21016;-74
2021/03/08 04:41:20;;;;;;;18.70;16.70;;;;;;;0.78;65.26;98108.70;1807624;78;20925;-74
2021/03/08 04:43:48;;;;;;;19.73;17.60;;;;;;;0.77;65.29;98111.78;1823461;78;20921;-75
2021/03/08 04:46:16;;;;;;;19.40;16.00;;;;;;;0.78;65.15;98113.99;1781574;79;21024;-74
2021/03/08 04:48:46;;;;;;;18.80;16.17;;;;;;;0.78;65.18;98106.06;1828340;77;22122;-74
2021/03/08 04:51:13;;;;;;;19.25;17.35;;;;;;;0.78;65.26;98108.70;1753729;80;21021;-74
2021/03/08 04:53:40;;;;;;;19.92;16.27;;;;;;;0.78;65.17;98113.99;1819656;78;20952;-74
2021/03/08 04:56:14;;;;;;;17.32;15.50;;;;;;;0.78;65.16;98110.02;1780110;80;21110;-75
2021/03/08 04:58:41;;;;;;;17.45;15.65;;;;;;;0.79;65.33;98117.02;1747437;80;21061;-75
2021/03/08 05:01:08;;;;;;;22.27;15.83;;;;;;;0.78;65.35;98113.52;1770303;80;22601;-74
2021/03/08 05:03:40;;;;;;;16.42;14.03;;;;;;;0.78;65.42;98107.38;1765034;80;20948;-75
2021/03/08 05:06:09;;;;;;;18.92;16.07;;;;;;;0.79;65.46;98111.73;1768979;80;21048;-75
2021/03/08 05:08:40;;;;;;;17.42;14.70;;;;;;;0.79;65.57;98113.05;1749694;81;21716;-75
2021/03/08 05:11:08;;;;;;;18.45;16.50;;;;;;;0.80;65.72;98116.11;1820545;78;20915;-75
2021/03/08 05:13:35;;;;;;;19.25;16.62;;;;;;;0.81;65.57;98116.53;1780670;79;21762;-75
2021/03/08 05:16:05;;;;;;;19.15;17.12;;;;;;;0.81;65.57;98117.86;1810118;78;21047;-74
2021/03/08 05:18:34;;;;;;;20.70;18.37;;;;;;;0.82;65.56;98115.59;1809539;78;21011;-76
2021/03/08 05:21:02;;;;;;;21.77;18.25;;;;;;;0.84;65.58;98113.31;1783885;80;20926;-76
2021/03/08 05:23:30;;;;;;;20.55;16.65;;;;;;;0.86;65.51;98114.59;1796018;78;20901;-76
2021/03/08 05:26:01;;;;;;;20.40;18.25;;;;;;;0.88;65.53;98116.70;1784633;80;21852;-74
2021/03/08 05:28:31;;;;;;;28.45;18.98;;;;;;;0.88;65.54;98114.95;1823831;78;20929;-74
2021/03/08 05:31:00;;;;;;;21.52;17.30;;;;;;;0.92;65.55;98113.52;1779118;80;20877;-75
2021/03/08 05:33:30;;;;;;;26.23;18.10;;;;;;;0.92;65.57;98118.34;1794979;77;20876;-75
2021/03/08 05:35:59;;;;;;;23.18;19.25;;;;;;;0.94;65.45;98116.50;1821682;78;21123;-75
2021/03/08 05:38:30;;;;;;;17.70;15.45;;;;;;;0.96;65.48;98119.09;1808840;78;21355;-75
2021/03/08 05:41:23;;;;;;;19.25;16.15;;;;;;;0.96;65.37;98125.23;1810404;78;20948;-74
2021/03/08 05:43:54;;;;;;;16.77;14.35;;;;;;;0.97;65.59;98120.83;1814253;78;21063;-74
2021/03/08 05:46:45;;;;;;;21.97;18.17;;;;;;;0.94;65.25;98115.17;1807096;77;21087;-75
2021/03/08 05:49:37;;;;;;;18.02;16.10;;;;;;;0.95;65.35;98120.88;1808715;78;20984;-75
2021/03/08 05:52:31;;;;;;;23.73;19.95;;;;;;;0.97;65.37;98121.67;1751548;80;21140;-74
2021/03/08 05:55:15;;;;;;;25.50;18.02;;;;;;;0.98;65.43;98110.20;1814533;78;21115;-75
2021/03/08 05:58:10;;;;;;;20.37;17.57;;;;;;;1.00;65.20;98125.54;1773899;80;21011;-75
2021/03/08 06:01:11;;;;;;;21.20;18.55;;;;;;;1.03;65.36;98121.94;1810299;78;21692;-73
2021/03/08 06:04:10;;;;;;;25.70;17.95;;;;;;;1.04;65.15;98121.00;1789680;80;20941;-75
2021/03/08 06:07:07;;;;;;;26.25;19.82;;;;;;;1.08;65.27;98128.77;1802971;78;21388;-74
2021/03/08 06:09:56;;;;;;;27.00;19.07;;;;;;;1.12;65.07;98127.34;1808659;78;21063;-75
2021/03/08 06:12:28;;;;;;;18.57;16.20;;;;;;;1.17;64.78;98128.06;1820720;78;21114;-75
2021/03/08 06:14:58;;;;;;;22.10;19.80;;;;;;;1.18;64.78;98129.77;1726144;80;21021;-75
2021/03/08 06:17:38;;;;;;;29.92;19.55;;;;;;;1.22;64.82;98135.37;1825732;77;22574;-74
2021/03/08 06:20:19;;;;;;;23.25;18.20;;;;;;;1.25;64.79;98141.87;1781636;80;22541;-75
2021/03/08 06:22:51;;;;;;;23.40;17.67;;;;;;;1.28;64.64;98144.41;1807679;78;21024;-75
2021/03/08 06:25:20;;;;;;;19.25;17.07;;;;;;;1.31;64.73;98145.62;1805407;78;21460;-76
2021/03/08 06:27:49;;;;;;;23.92;21.07;;;;;;;1.32;64.72;98148.66;1822446;78;20999;-75
2021/03/08 06:30:18;;;;;;;24.63;20.62;;;;;;;1.34;64.79;98146.84;1818360;78;20909;-75
2021/03/08 06:32:46;;;;;;;26.77;19.77;;;;;;;1.34;64.56;98143.30;1778643;77;21439;-75
2021/03/08 06:35:16;;;;;;;22.65;18.42;;;;;;;1.34;64.43;98149.48;1821821;78;20953;-75
2021/03/08 06:37:47;;;;;;;21.23;18.98;;;;;;;1.36;64.56;98159.55;1786530;80;21052;-76
2021/03/08 06:40:18;;;;;;;26.75;21.42;;;;;;;1.35;64.68;98159.60;1780955;80;21419;-75
2021/03/08 06:42:47;;;;;;;24.87;20.85;;;;;;;1.35;64.47;98160.45;1822241;78;21107;-73
2021/03/08 06:45:17;;;;;;;29.30;19.67;;;;;;;1.37;64.63;98162.61;1814308;78;22495;-73
2021/03/08 06:47:44;;;;;;;24.87;20.35;;;;;;;1.39;64.72;98152.82;1804409;78;20977;-73
2021/03/08 06:50:15;;;;;;;24.92;20.50;;;;;;;1.43;64.82;98162.39;1804810;78;20889;-76
2021/03/08 06:52:43;;;;;;;23.35;19.05;;;;;;;1.47;64.67;98169.75;1778799;80;20924;-74
2021/03/08 06:55:11;;;;;;;26.23;20.50;;;;;;;1.50;64.39;98162.14;1810160;78;20908;-77
2021/03/08 06:57:42;;;;;;;27.58;20.97;;;;;;;1.50;64.52;98168.31;1826020;78;21178;-76
2021/03/08 07:00:11;;;;;;;21.77;19.30;;;;;;;1.52;64.42;98165.61;1814537;78;20897;-75
2021/03/08 07:02:48;;;;;;;25.55;21.00;;;;;;;1.52;64.53;98173.08;1754761;80;21052;-74
2021/03/08 07:05:26;;;;;;;27.00;22.65;;;;;;;1.51;64.53;98171.34;1751436;81;21068;-76
2021/03/08 07:07:59;;;;;;;27.27;21.55;;;;;;;1.50;64.45;98178.02;1779162;80;20909;-76
2021/03/08 07:10:37;;;;;;;23.65;20.43;;;;;;;1.48;64.78;98185.16;1754799;80;21129;-75
2021/03/08 07:13:12;;;;;;;25.97;19.87;;;;;;;1.46;64.79;98185.69;1810116;78;21057;-77
2021/03/08 07:15:58;;;;;;;25.65;19.62;;;;;;;1.42;65.01;98191.09;1773745;80;21071;-74
2021/03/08 07:18:29;;;;;;;28.83;22.42;;;;;;;1.38;65.01;98188.13;1763539;81;20945;-76
2021/03/08 07:21:23;;;;;;;25.70;20.95;;;;;;;1.37;65.27;98190.39;1815524;77;21087;-74
2021/03/08 07:23:52;;;;;;;;;;;;;;;1.36;65.46;98191.30;1786093;79;21382;-75
2021/03/08 07:26:23;;;;;;;30.70;22.25;;;;;;;1.37;65.47;98195.69;1753570;81;20206;-73
2021/03/08 07:29:13;;;;;;;23.90;20.77;;;;;;;1.35;65.72;98196.17;1760794;81;21044;-72
2021/03/08 07:31:51;;;;;;;27.73;22.70;;;;;;;1.34;65.98;98205.06;1745624;81;21338;-76
2021/03/08 07:34:23;;;;;;;33.38;25.57;;;;;;;1.32;66.32;98204.22;1803450;78;21485;-76
2021/03/08 07:37:01;;;;;;;34.18;24.90;;;;;;;1.28;67.02;98207.91;1811183;78;21379;-74
2021/03/08 07:39:29;;;;;;;30.37;23.50;;;;;;;1.28;68.05;98207.03;1783222;80;20928;-76
2021/03/08 07:42:09;;;;;;;33.73;26.75;;;;;;;1.23;68.92;98213.80;1818271;78;20896;-75
2021/03/08 07:44:33;;;;;;;;;;;;;;;1.23;69.42;98205.86;1780558;79;21003;-78
2021/03/08 07:47:18;;;;;;;35.58;26.82;;;;;;;1.22;70.46;98213.41;1696989;81;20151;-77
2021/03/08 07:49:48;;;;;;;33.83;26.02;;;;;;;1.18;70.98;98215.75;1812149;77;21364;-78
2021/03/08 07:52:21;;;;;;;36.20;26.75;;;;;;;1.15;71.82;98219.82;1809254;78;21146;-77
2021/03/08 07:54:57;;;;;;;35.25;26.55;;;;;;;1.11;72.61;98221.72;1784182;79;21426;-70
2021/03/08 07:57:27;;;;;;;37.08;28.15;;;;;;;1.12;73.10;98218.60;1725954;80;21016;-79
2021/03/08 07:59:56;;;;;;;30.50;23.45;;;;;;;1.12;73.21;98227.86;1788476;77;20933;-75
2021/03/08 08:02:25;;;;;;;34.58;27.60;;;;;;;1.12;73.75;98222.57;1784677;80;22349;-74
2021/03/08 08:04:56;;;;;;;38.55;27.90;;;;;;;1.13;74.05;98225.63;1741429;80;20991;-76
2021/03/08 08:07:26;;;;;;;36.35;27.05;;;;;;;1.15;74.45;98229.08;1818078;78;20933;-76
2021/03/08 08:09:54;;;;;;;30.85;24.98;;;;;;;1.17;74.67;98234.73;1785221;79;21116;-77
2021/03/08 08:12:28;;;;;;;39.10;29.92;;;;;;;1.19;74.90;98234.69;1783826;79;21649;-75
2021/03/08 08:14:55;;;;;;;36.03;26.45;;;;;;;1.19;75.12;98237.33;1750738;81;21663;-75
2021/03/08 08:17:25;;;;;;;30.12;24.35;;;;;;;1.20;75.43;98235.07;1743690;79;21057;-78
2021/03/08 08:19:56;;;;;;;39.73;28.32;;;;;;;1.23;75.48;98233.64;1781786;78;20997;-76
2021/03/08 08:22:31;;;;;;;39.23;28.23;;;;;;;1.23;75.68;98234.53;1754122;80;21672;-79
2021/03/08 08:25:04;;;;;;;43.02;32.00;;;;;;;1.23;75.82;98239.83;1820488;78;20917;-77
2021/03/08 08:27:32;;;;;;;36.35;28.00;;;;;;;1.21;75.77;98235.02;1784518;78;21508;-77
2021/03/08 08:30:01;;;;;;;34.63;27.40;;;;;;;1.22;75.89;98242.52;1762418;79;21099;-69
2021/03/08 08:32:52;;;;;;;32.93;25.62;;;;;;;1.21;75.82;98246.07;1824561;78;20941;-76
2021/03/08 08:35:33;;;;;;;37.70;28.80;;;;;;;1.22;75.94;98249.98;1817651;78;21103;-78
2021/03/08 08:38:15;;;;;;;33.80;26.73;;;;;;;1.23;76.15;98250.84;1815999;78;20925;-75
2021/03/08 08:40:46;;;;;;;41.15;28.15;;;;;;;1.22;76.41;98254.42;1805300;78;21257;-75
2021/03/08 08:43:19;;;;;;;36.17;27.17;;;;;;;1.22;76.45;98255.28;1805081;78;21000;-75
2021/03/08 08:45:52;;;;;;;33.87;27.37;;;;;;;1.24;76.64;98256.55;1818184;78;20936;-75
2021/03/08 08:48:20;;;;;;;;;;;;;;;1.26;76.94;98252.06;1748494;80;21425;-77
2021/03/08 08:50:52;;;;;;;42.67;29.32;;;;;;;1.25;77.20;98253.85;1753946;79;20212;-75
2021/03/08 08:53:39;;;;;;;49.20;34.45;;;;;;;1.24;77.48;98253.91;1818247;78;22316;-74
2021/03/08 08:56:09;;;;;;;44.88;33.02;;;;;;;1.26;77.37;98265.29;1783212;79;21045;-76
2021/03/08 08:58:52;;;;;;;11.35;8.35;;;;;;;1.24;77.43;98269.78;1816091;78;21470;-77
2021/03/08 09:01:34;;;;;;;6.60;5.40;;;;;;;1.16;73.47;98266.53;1818278;78;21498;-76
2021/03/08 09:04:13;;;;;;;2.87;2.00;;;;;;;0.97;71.91;98280.36;1825830;78;20978;-74
2021/03/08 09:06:51;;;;;;;3.08;1.92;;;;;;;0.70;71.40;98275.04;1757350;81;21779;-78
2021/03/08 09:09:26;;;;;;;2.25;2.05;;;;;;;0.46;71.85;98283.28;1823260;78;20929;-73
2021/03/08 09:12:06;;;;;;;2.55;2.22;;;;;;;0.36;72.64;98291.06;1818133;78;20977;-76
2021/03/08 09:14:46;;;;;;;2.98;2.17;;;;;;;0.25;73.02;98297.98;1826542;77;21032;-76
2021/03/08 09:17:46;;;;;;;2.22;1.90;;;;;;;0.15;73.60;98292.58;1778338;78;20980;-78
2021/03/08 09:20:21;;;;;;;1.95;1.52;;;;;;;0.12;73.92;98297.94;1805454;78;21353;-76
2021/03/08 09:22:54;;;;;;;1.95;1.62;;;;;;;0.10;73.82;98306.38;1824818;78;21025;-75
2021/03/08 09:25:31;;;;;;;2.58;1.50;;;;;;;0.03;73.25;98306.98;1820608;78;20980;-75
2021/03/08 09:28:10;;;;;;;2.08;1.50;;;;;;;0.04;73.24;98310.50;1817525;78;20997;-74
2021/03/08 09:30:45;;;;;;;2.17;1.32;;;;;;;0.06;73.58;98311.32;1820293;78;21584;-75
2021/03/08 09:33:18;;;;;;;1.87;1.10;;;;;;;0.07;73.61;98311.74;1826853;78;22143;-74
2021/03/08 09:35:55;;;;;;;2.67;1.37;;;;;;;0.07;72.77;98318.34;1822018;78;21624;-75
2021/03/08 09:38:27;;;;;;;1.05;1.00;;;;;;;0.12;72.82;98315.11;1821997;78;20969;-74
2021/03/08 09:40:58;;;;;;;2.10;1.40;;;;;;;0.20;72.99;98317.07;1810802;78;21096;-72
2021/03/08 09:43:36;;;;;;;2.22;1.62;;;;;;;0.28;72.62;98319.02;1815640;78;21405;-74
2021/03/08 09:46:13;;;;;;;2.45;1.10;;;;;;;0.34;72.27;98314.89;1810002;78;21370;-73
2021/03/08 09:48:45;;;;;;;1.07;0.82;;;;;;;0.43;72.10;98318.19;1810387;78;21133;-73
2021/03/08 09:51:15;;;;;;;1.57;1.15;;;;;;;0.50;72.24;98322.37;1814526;78;20972;-73
2021/03/08 09:53:52;;;;;;;1.90;1.10;;;;;;;0.58;71.94;98328.28;1827954;78;21557;-74
2021/03/08 09:56:21;;;;;;;2.10;1.70;;;;;;;0.68;71.88;98328.89;1827618;78;20973;-73
2021/03/08 09:59:04;;;;;;;1.67;1.42;;;;;;;0.75;71.73;98329.56;1821684;78;21191;-74
2021/03/08 10:01:36;;;;;;;2.80;1.30;;;;;;;0.81;71.79;98334.20;1817687;78;21036;-73
2021/03/08 10:04:06;;;;;;;3.33;1.70;;;;;;;0.89;71.56;98340.57;1822188;78;21056;-74
2021/03/08 10:06:35;;;;;;;2.10;1.40;;;;;;;0.96;71.36;98350.02;1803592;78;20964;-74
2021/03/08 10:09:21;;;;;;;2.00;1.50;;;;;;;1.03;71.38;98346.28;1817643;78;20924;-74
2021/03/08 10:12:05;;;;;;;2.35;1.30;;;;;;;1.10;71.10;98356.67;1811614;78;22273;-75
2021/03/08 10:14:35;;;;;;;2.30;1.30;;;;;;;1.16;70.82;98355.16;1821073;78;20976;-75
2021/03/08 10:17:10;;;;;;;1.10;1.00;;;;;;;1.23;69.94;98360.21;1813220;78;21000;-75
2021/03/08 10:20:00;;;;;;;2.08;1.40;;;;;;;1.29;69.60;98365.74;1813085;78;20976;-75
2021/03/08 10:22:39;;;;;;;1.80;1.37;;;;;;;1.37;69.76;98366.82;1822256;77;21008;-74
2021/03/08 10:25:31;;;;;;;3.52;2.30;;;;;;;1.44;69.40;98363.92;1804470;78;22300;-74
2021/03/08 10:28:04;;;;;;;5.12;3.10;;;;;;;1.49;68.63;98364.24;1817450;77;20936;-75
2021/03/08 10:30:41;;;;;;;3.12;2.08;;;;;;;1.49;68.12;98366.89;1824203;78;20918;-74
2021/03/08 10:33:23;;;;;;;3.45;2.40;;;;;;;1.47;68.23;98368.70;1822457;78;21127;-73
2021/03/08 10:35:54;;;;;;;4.12;2.17;;;;;;;1.42;68.52;98368.41;1820290;78;21544;-76
2021/03/08 10:38:27;;;;;;;3.20;1.95;;;;;;;1.42;68.73;98368.41;1811246;77;21770;-76
2021/03/08 10:41:02;;;;;;;4.58;2.40;;;;;;;1.41;68.52;98364.02;1808256;78;21558;-78
2021/03/08 10:43:34;;;;;;;4.70;2.62;;;;;;;1.38;67.74;98365.91;1813402;78;21008;-77
2021/03/08 10:46:06;;;;;;;5.75;3.15;;;;;;;1.39;67.97;98372.48;1804326;78;21007;-76
2021/03/08 10:57:52;;;;;;;3.15;2.00;;;;;;;1.66;67.48;98367.19;1659382;81;21109;-76
2021/03/08 11:03:46;;;;;;;3.00;2.45;;;;;;;1.83;66.82;98376.33;1679570;80;20980;-77
2021/03/08 11:09:09;;;;;;;3.67;2.50;;;;;;;1.97;67.57;98371.41;1713870;83;21016;-76
2021/03/08 11:11:44;;;;;;;4.28;2.80;;;;;;;1.98;66.99;98374.00;1675304;83;21028;-76
2021/03/08 11:14:13;;;;;;;4.22;2.55;;;;;;;2.02;67.11;98369.48;1711507;83;21627;-73
2021/03/08 11:16:49;;;;;;;3.62;2.72;;;;;;;2.02;66.79;98368.16;1697471;83;21239;-73
2021/03/08 11:19:29;;;;;;;3.58;2.37;;;;;;;1.99;66.98;98372.24;1695064;83;21670;-74
2021/03/08 11:22:14;;;;;;;3.83;3.40;;;;;;;1.95;67.13;98375.44;1672592;83;21528;-74
2021/03/08 11:24:49;;;;;;;3.62;2.25;;;;;;;1.92;67.17;98370.72;1713561;82;20948;-74
2021/03/08 11:27:27;;;;;;;3.98;2.35;;;;;;;1.87;67.52;98370.02;1689478;83;20956;-74
2021/03/08 11:30:09;;;;;;;4.42;3.17;;;;;;;1.82;67.26;98369.31;1698898;83;21072;-74
2021/03/08 11:32:40;;;;;;;3.10;2.90;;;;;;;1.78;67.31;98370.75;1687369;83;21593;-74
2021/03/08 11:35:17;;;;;;;3.77;3.37;;;;;;;1.75;67.58;98365.55;1694176;83;20964;-75
2021/03/08 11:37:48;;;;;;;3.45;2.80;;;;;;;1.71;67.51;98367.89;1702777;83;20946;-74
2021/03/08 11:40:20;;;;;;;4.95;3.27;;;;;;;1.70;67.97;98376.73;1694588;83;21632;-74
2021/03/08 11:42:50;;;;;;;4.25;3.60;;;;;;;1.66;68.17;98372.48;1712247;83;20940;-74
2021/03/08 11:45:19;;;;;;;4.83;3.85;;;;;;;1.72;68.30;98369.63;1706025;83;21383;-73
2021/03/08 11:47:53;;;;;;;6.35;3.22;;;;;;;1.77;68.43;98366.36;1716948;83;21088;-74
2021/03/08 11:50:23;;;;;;;3.12;2.83;;;;;;;1.87;68.26;98364.72;1709231;83;21557;-72
2021/03/08 11:52:51;;;;;;;4.05;3.55;;;;;;;1.96;67.58;98365.26;1682210;83;20949;-73
2021/03/08 11:55:20;;;;;;;4.42;3.70;;;;;;;2.02;67.09;98357.56;1699903;83;20944;-74
2021/03/08 11:57:51;;;;;;;5.30;4.00;;;;;;;2.13;66.93;98362.02;1721014;83;21218;-74
2021/03/08 12:00:27;;;;;;;5.05;4.53;;;;;;;2.28;66.75;98365.03;1686035;82;21145;-74
2021/03/08 12:03:00;;;;;;;7.00;4.22;;;;;;;2.34;66.06;98370.11;1697397;83;21524;-73
2021/03/08 12:05:30;;;;;;;6.00;4.47;;;;;;;2.38;64.44;98371.74;1717942;83;20971;-74
2021/03/08 12:07:59;;;;;;;5.00;4.22;;;;;;;2.45;63.88;98373.70;1717877;83;20956;-73
2021/03/08 12:10:28;;;;;;;5.28;4.25;;;;;;;2.47;63.11;98373.17;1715496;83;21825;-73
2021/03/08 12:12:58;;;;;;;5.53;4.55;;;;;;;2.46;61.66;98380.27;1674789;83;21021;-75
2021/03/08 12:15:31;;;;;;;4.47;3.80;;;;;;;2.31;60.96;98372.88;1678075;84;20953;-70
2021/03/08 12:17:59;;;;;;;4.65;3.90;;;;;;;2.32;61.21;98378.12;1702851;83;21065;-74